createdAt,value
2023-12-08T00:00:28.977Z,980.6
2023-12-08T00:04:32.293Z,980.5
2023-12-08T00:06:33.423Z,980.5
2023-12-08T00:10:36.874Z,980.4
2023-12-08T00:14:40.088Z,980.5
2023-12-08T00:16:41.538Z,980.4
2023-12-08T00:20:44.716Z,980.2
2023-12-08T00:24:47.446Z,980.1
2023-12-08T00:26:49.071Z,980
2023-12-08T00:30:51.891Z,980
2023-12-08T00:32:53.241Z,979.9
2023-12-08T00:36:56.864Z,979.8
2023-12-08T00:40:59.976Z,979.7
2023-12-08T00:43:01.663Z,979.7
2023-12-08T00:47:04.116Z,979.7
2023-12-08T00:49:06.148Z,979.7
2023-12-08T00:53:08.702Z,979.6
2023-12-08T00:57:11.649Z,979.5
2023-12-08T00:59:13.404Z,979.5
2023-12-08T01:03:16.614Z,979.5
2023-12-08T01:07:18.946Z,979.4
2023-12-08T01:09:20.342Z,979.4
2023-12-08T01:13:23.699Z,979.6
2023-12-08T01:15:25.397Z,979.5
2023-12-08T01:17:27.537Z,979.6
2023-12-08T01:19:28.552Z,979.6
2023-12-08T01:23:31.626Z,979.5
2023-12-08T01:25:33.481Z,979.5
2023-12-08T01:29:36.264Z,979.5
2023-12-08T01:31:37.958Z,979.5
2023-12-08T01:35:40.890Z,979.5
2023-12-08T01:39:43.976Z,979.3
2023-12-08T01:41:45.422Z,979.3
2023-12-08T01:45:48.651Z,979.3
2023-12-08T01:49:51.119Z,979.2
2023-12-08T01:51:52.379Z,979.1
2023-12-08T01:55:55.421Z,979
2023-12-08T01:57:56.749Z,979
2023-12-08T01:59:59.049Z,979
2023-12-08T02:02:00.537Z,979.1
2023-12-08T02:06:03.536Z,979.1
2023-12-08T02:08:05.443Z,979.1
2023-12-08T02:10:06.708Z,979.3
2023-12-08T02:12:08.112Z,979.3
2023-12-08T02:14:09.962Z,979.2
2023-12-08T02:18:12.901Z,978.8
2023-12-08T02:20:14.464Z,978.7
2023-12-08T02:22:15.606Z,978.3
2023-12-08T02:24:16.825Z,978.2
2023-12-08T02:28:19.736Z,978
2023-12-08T02:31:04.739Z,978
2023-12-08T02:33:06.291Z,978.3
2023-12-08T02:37:08.852Z,979.1
2023-12-08T02:39:10.044Z,979
2023-12-08T02:41:11.685Z,979
2023-12-08T02:43:13.111Z,978.9
2023-12-08T02:45:14.337Z,978.9
2023-12-08T02:49:17.771Z,979
2023-12-08T02:51:19.045Z,979
2023-12-08T02:55:22.566Z,978.8
2023-12-08T02:59:25.160Z,978.9
2023-12-08T03:01:26.584Z,979.1
2023-12-08T03:05:29.593Z,979.2
2023-12-08T03:07:30.882Z,979.1
2023-12-08T03:11:33.911Z,978.9
2023-12-08T03:15:37.403Z,978.8
2023-12-08T03:17:38.644Z,978.7
2023-12-08T03:19:49.400Z,978.7
2023-12-08T03:21:41.387Z,978.7
2023-12-08T03:25:43.855Z,978.6
2023-12-08T03:27:45.655Z,978.7
2023-12-08T03:31:48.844Z,978.6
2023-12-08T03:33:50.455Z,978.6
2023-12-08T03:37:53.335Z,978.6
2023-12-08T03:41:55.615Z,978.6
2023-12-08T03:43:56.604Z,978.7
2023-12-08T03:47:59.840Z,978.6
2023-12-08T03:50:01.157Z,978.6
2023-12-08T03:54:04.395Z,978.7
2023-12-08T03:58:07.171Z,978.7
2023-12-08T04:00:09.137Z,978.6
2023-12-08T04:04:12.156Z,978.6
2023-12-08T04:08:15.581Z,978.6
2023-12-08T04:10:17.519Z,978.6
2023-12-08T04:14:20.183Z,978.6
2023-12-08T04:16:22.017Z,978.6
2023-12-08T04:20:25.213Z,978.6
2023-12-08T04:24:28.210Z,978.6
2023-12-08T04:26:30.098Z,978.6
2023-12-08T04:30:32.890Z,978.5
2023-12-08T04:32:34.267Z,978.5
2023-12-08T04:36:37.690Z,978.5
2023-12-08T04:38:38.917Z,978.4
2023-12-08T04:40:40.709Z,978.4
2023-12-08T04:42:42.607Z,978.3
2023-12-08T04:46:45.589Z,978.2
2023-12-08T04:48:47.259Z,978
2023-12-08T04:50:49.176Z,977.9
2023-12-08T04:54:52.362Z,978.2
2023-12-08T04:56:54.290Z,978.1
2023-12-08T04:58:56.203Z,978.3
2023-12-08T05:02:59.169Z,978
2023-12-08T05:05:00.574Z,978.2
2023-12-08T05:07:02.449Z,978.2
2023-12-08T05:09:03.939Z,978.3
2023-12-08T05:13:06.891Z,977.9
2023-12-08T05:15:08.532Z,977.7
2023-12-08T05:17:10.112Z,977.6
2023-12-08T05:21:13.438Z,977.5
2023-12-08T05:23:14.653Z,977.9
2023-12-08T05:25:15.723Z,978.7
2023-12-08T05:29:17.980Z,978.7
2023-12-08T05:31:19.201Z,978.7
2023-12-08T05:35:21.567Z,978.7
2023-12-08T05:39:25.391Z,978.5
2023-12-08T05:41:26.440Z,978.6
2023-12-08T05:43:28.256Z,978.6
2023-12-08T05:45:30.085Z,978.7
2023-12-08T05:49:33.314Z,978.7
2023-12-08T05:51:34.863Z,978.8
2023-12-08T05:55:37.532Z,978.7
2023-12-08T05:57:39.459Z,978.7
2023-12-08T06:01:42.673Z,978.6
2023-12-08T06:05:46.057Z,978.4
2023-12-08T06:07:47.959Z,978.6
2023-12-08T06:11:51.806Z,978.5
2023-12-08T06:15:54.836Z,978.4
2023-12-08T06:17:56.755Z,978.4
2023-12-08T06:21:59.673Z,978.2
2023-12-08T06:24:02.785Z,978.3
2023-12-08T06:28:03.963Z,978.4
2023-12-08T06:32:07.068Z,978.4
2023-12-08T06:34:13.185Z,978.5
2023-12-08T06:38:11.275Z,978.4
2023-12-08T06:40:12.690Z,978.4
2023-12-08T06:44:15.566Z,978.4
2023-12-08T06:48:18.875Z,978.2
2023-12-08T06:50:20.082Z,978.3
2023-12-08T06:54:32.009Z,978.2
2023-12-08T07:00:27.721Z,978.2
2023-12-08T07:04:31.436Z,978.4
2023-12-08T07:06:32.524Z,978.2
2023-12-08T07:08:34.338Z,978.3
2023-12-08T07:10:36.365Z,978.3
2023-12-08T07:14:39.044Z,978.3
2023-12-08T07:16:40.492Z,978.2
2023-12-08T07:18:42.603Z,978.2
2023-12-08T07:20:44.204Z,978.2
2023-12-08T07:22:45.658Z,978.3
2023-12-08T07:26:49.267Z,978.4
2023-12-08T07:28:51.151Z,978.3
2023-12-08T07:30:52.492Z,978.3
2023-12-08T07:32:53.730Z,978.4
2023-12-08T07:36:57.221Z,978.3
2023-12-08T07:38:58.650Z,978.4
2023-12-08T07:43:01.892Z,978.4
2023-12-08T07:47:04.943Z,978.4
2023-12-08T07:49:06.810Z,978.4
2023-12-08T07:53:09.440Z,978.4
2023-12-08T07:57:12.360Z,978.3
2023-12-08T07:59:13.388Z,978.4
2023-12-08T08:03:16.069Z,978.4
2023-12-08T08:05:17.424Z,978.4
2023-12-08T08:09:19.885Z,978.4
2023-12-08T08:13:22.587Z,978.5
2023-12-08T08:15:23.677Z,978.5
2023-12-08T08:19:26.322Z,978.5
2023-12-08T08:21:27.586Z,978.4
2023-12-08T08:25:29.910Z,978.5
2023-12-08T08:29:33.150Z,978.6
2023-12-08T08:31:34.675Z,978.6
2023-12-08T08:35:37.803Z,978.6
2023-12-08T08:39:41.054Z,978.7
2023-12-08T08:41:42.820Z,978.7
2023-12-08T08:45:45.954Z,978.6
2023-12-08T08:47:47.556Z,978.6
2023-12-08T08:51:50.922Z,978.6
2023-12-08T08:55:53.475Z,978.6
2023-12-08T08:57:54.772Z,978.5
2023-12-08T09:01:58.565Z,978.5
2023-12-08T09:04:00.358Z,978.5
2023-12-08T09:08:03.629Z,978.5
2023-12-08T09:12:06.502Z,978.4
2023-12-08T09:14:08.027Z,978.5
2023-12-08T09:16:53.419Z,978.4
2023-12-08T09:18:55.545Z,978.4
2023-12-08T09:22:58.891Z,978.5
2023-12-08T09:25:00.828Z,978.4
2023-12-08T09:29:04.317Z,978.5
2023-12-08T09:33:07.986Z,978.5
2023-12-08T09:35:09.699Z,978.5
2023-12-08T09:39:12.486Z,978.5
2023-12-08T09:41:14.239Z,978.5
2023-12-08T09:45:17.495Z,978.5
2023-12-08T09:49:20.230Z,978.4
2023-12-08T09:51:21.431Z,978.4
2023-12-08T09:55:23.845Z,978.3
2023-12-08T09:59:26.467Z,978.3
2023-12-08T10:01:27.629Z,978.4
2023-12-08T10:03:29.372Z,978.4
2023-12-08T10:05:30.470Z,978.4
2023-12-08T10:07:31.598Z,978.3
2023-12-08T10:09:33.522Z,978.4
2023-12-08T10:11:35.354Z,978.3
2023-12-08T10:15:37.561Z,978.3
2023-12-08T10:17:38.814Z,978.3
2023-12-08T10:19:40.207Z,978.3
2023-12-08T10:21:41.326Z,978.2
2023-12-08T10:23:43.174Z,978.1
2023-12-08T10:27:46.891Z,978.2
2023-12-08T10:31:49.845Z,978.2
2023-12-08T10:33:51.465Z,978.2
2023-12-08T10:37:53.761Z,978.1
2023-12-08T10:39:54.807Z,978.2
2023-12-08T10:43:57.590Z,978.2
2023-12-08T10:48:00.798Z,978.1
2023-12-08T10:50:01.822Z,978.2
2023-12-08T10:54:04.907Z,978.2
2023-12-08T10:58:08.100Z,978.2
2023-12-08T11:00:09.239Z,978.2
2023-12-08T11:04:12.098Z,978.2
2023-12-08T11:06:13.777Z,978.2
2023-12-08T11:10:16.727Z,978.2
2023-12-08T11:14:19.860Z,978.2
2023-12-08T11:16:21.473Z,978.2
2023-12-08T11:20:23.717Z,978.3
2023-12-08T11:22:24.768Z,978.4
2023-12-08T11:26:28.108Z,978.4
2023-12-08T11:30:31.211Z,978.3
2023-12-08T11:32:32.278Z,978.4
2023-12-08T11:36:35.766Z,978.3
2023-12-08T11:40:38.664Z,978.2
2023-12-08T11:42:40.298Z,978.2
2023-12-08T11:46:43.149Z,978.2
2023-12-08T11:48:44.513Z,978
2023-12-08T11:52:47.080Z,978.2
2023-12-08T11:56:49.247Z,978.2
2023-12-08T11:58:50.870Z,978.2
2023-12-08T12:02:54.074Z,978.2
2023-12-08T12:04:55.777Z,978.3
2023-12-08T12:08:57.964Z,978.2
2023-12-08T12:13:01.405Z,978.2
2023-12-08T12:15:02.802Z,978.2
2023-12-08T12:19:06.304Z,978.2
2023-12-08T12:23:09.348Z,978.2
2023-12-08T12:25:11.018Z,978.4
2023-12-08T12:29:13.370Z,978.3
2023-12-08T12:31:15.368Z,978.3
2023-12-08T12:35:18.528Z,978.3
2023-12-08T12:39:21.229Z,978.3
2023-12-08T12:41:22.852Z,978.3
2023-12-08T12:45:26.428Z,978.4
2023-12-08T12:47:28.557Z,978.4
2023-12-08T12:51:31.544Z,978.3
2023-12-08T12:55:34.932Z,978.4
2023-12-08T12:57:36.499Z,978.3
2023-12-08T13:01:39.250Z,978.5
2023-12-08T13:05:41.339Z,978.5
2023-12-08T13:07:43.228Z,978.4
2023-12-08T13:11:46.922Z,978.3
2023-12-08T13:13:48.733Z,978.4
2023-12-08T13:17:51.504Z,978.4
2023-12-08T13:21:54.213Z,978.4
2023-12-08T13:23:55.875Z,978.5
2023-12-08T13:27:58.216Z,978.5
2023-12-08T13:30:00.134Z,978.5
2023-12-08T13:34:03.433Z,978.5
2023-12-08T13:38:06.903Z,978.5
2023-12-08T13:40:08.236Z,978.6
2023-12-08T13:44:11.601Z,978.5
2023-12-08T13:48:14.597Z,978.4
2023-12-08T13:50:16.168Z,978.5
2023-12-08T13:54:19.248Z,978.7
2023-12-08T13:56:20.507Z,978.6
2023-12-08T13:58:22.032Z,978.7
2023-12-08T14:00:23.410Z,978.7
2023-12-08T14:04:25.741Z,978.7
2023-12-08T14:06:26.806Z,978.7
2023-12-08T14:10:29.755Z,978.8
2023-12-08T14:12:31.509Z,978.8
2023-12-08T14:16:33.901Z,978.9
2023-12-08T14:20:36.831Z,978.8
2023-12-08T14:22:37.974Z,978.9
2023-12-08T14:26:40.527Z,978.8
2023-12-08T14:28:41.944Z,978.8
2023-12-08T14:32:44.485Z,978.9
2023-12-08T14:36:46.919Z,978.7
2023-12-08T14:38:48.050Z,978.7
2023-12-08T14:42:50.998Z,979
2023-12-08T14:46:53.433Z,979
2023-12-08T14:48:54.608Z,979
2023-12-08T14:52:58.010Z,979
2023-12-08T14:55:00.354Z,979.1
2023-12-08T14:59:02.542Z,979.1
2023-12-08T15:03:06.404Z,979.2
2023-12-08T15:05:06.674Z,979.2
2023-12-08T15:09:09.677Z,979.2
2023-12-08T15:11:11.275Z,979.3
2023-12-08T15:15:14.105Z,979.3
2023-12-08T15:19:17.750Z,979.3
2023-12-08T15:21:18.983Z,979.4
2023-12-08T15:25:21.516Z,979.4
2023-12-08T15:29:25.073Z,979.4
2023-12-08T15:31:26.238Z,979.3
2023-12-08T15:35:29.386Z,979.4
2023-12-08T15:37:30.713Z,979.3
2023-12-08T15:41:33.408Z,979.4
2023-12-08T15:45:36.118Z,979.4
2023-12-08T15:47:37.705Z,979.4
2023-12-08T15:51:40.857Z,979.4
2023-12-08T15:53:42.317Z,979.4
2023-12-08T15:57:45.763Z,979.4
2023-12-08T16:02:32.202Z,979.5
2023-12-08T16:08:37.254Z,979.6
2023-12-08T16:12:39.996Z,979.5
2023-12-08T16:14:41.186Z,979.7
2023-12-08T16:18:44.297Z,979.7
2023-12-08T16:22:46.924Z,979.7
2023-12-08T16:24:48.450Z,979.7
2023-12-08T16:28:51.691Z,979.8
2023-12-08T16:30:52.985Z,979.8
2023-12-08T16:34:55.425Z,979.8
2023-12-08T16:38:58.394Z,979.8
2023-12-08T16:40:59.597Z,979.8
2023-12-08T16:45:03.257Z,980
2023-12-08T16:47:03.529Z,980
2023-12-08T16:49:05.516Z,979.9
2023-12-08T16:51:06.534Z,980
2023-12-08T16:55:09.326Z,980
2023-12-08T16:57:11.295Z,979.9
2023-12-08T16:59:12.983Z,980
2023-12-08T17:01:14.272Z,979.9
2023-12-08T17:03:15.966Z,980
2023-12-08T17:07:19.034Z,980
2023-12-08T17:11:21.763Z,980.1
2023-12-08T17:13:22.990Z,980
2023-12-08T17:17:26.083Z,980.2
2023-12-08T17:19:27.645Z,980.2
2023-12-08T17:23:31.214Z,980.2
2023-12-08T17:27:34.605Z,980.2
2023-12-08T17:29:35.712Z,980.2
2023-12-08T17:33:39.179Z,980.3
2023-12-08T17:37:42.198Z,980.4
2023-12-08T17:39:44.198Z,980.4
2023-12-08T17:43:47.331Z,980.3
2023-12-08T17:45:48.722Z,980.4
2023-12-08T17:49:51.121Z,980.5
2023-12-08T17:53:54.103Z,980.3
2023-12-08T17:55:56.069Z,980.5
2023-12-08T18:00:00.524Z,980.6
2023-12-08T18:02:00.296Z,980.5
2023-12-08T18:06:03.317Z,980.6
2023-12-08T18:10:06.240Z,980.6
2023-12-08T18:12:07.380Z,980.6
2023-12-08T18:16:09.964Z,980.7
2023-12-08T18:20:13.451Z,980.7
2023-12-08T18:22:14.546Z,980.6
2023-12-08T18:26:16.645Z,980.7
2023-12-08T18:28:39.623Z,980.8
2023-12-08T18:32:19.964Z,980.8
2023-12-08T18:36:23.134Z,980.9
2023-12-08T18:38:25.043Z,980.8
2023-12-08T18:42:27.738Z,980.8
2023-12-08T18:44:29.503Z,980.9
2023-12-08T18:48:32.538Z,980.9
2023-12-08T18:52:35.093Z,981
2023-12-08T18:54:36.790Z,981
2023-12-08T18:58:39.555Z,981.2
2023-12-08T19:02:42.574Z,981.1
2023-12-08T19:04:43.971Z,981.2
2023-12-08T19:08:46.325Z,981.2
2023-12-08T19:10:47.380Z,981.2
2023-12-08T19:14:50.073Z,981.1
2023-12-08T19:18:52.777Z,981.2
2023-12-08T19:20:54.599Z,981.1
2023-12-08T19:24:57.618Z,981.2
2023-12-08T19:26:59.261Z,981.2
2023-12-08T19:31:01.647Z,981.2
2023-12-08T19:35:03.984Z,981.2
2023-12-08T19:37:05.410Z,981.3
2023-12-08T19:41:07.993Z,981.4
2023-12-08T19:45:10.472Z,981.3
2023-12-08T19:47:11.851Z,981.3
2023-12-08T19:51:14.969Z,981.4
2023-12-08T19:53:16.907Z,981.5
2023-12-08T19:55:18.071Z,981.5
2023-12-08T19:57:19.714Z,981.5
2023-12-08T20:01:22.993Z,981.5
2023-12-08T20:03:24.334Z,981.6
2023-12-08T20:05:25.422Z,981.5
2023-12-08T20:07:26.682Z,981.5
2023-12-08T20:09:28.170Z,981.5
2023-12-08T20:13:31.332Z,981.6
2023-12-08T20:15:33.355Z,981.6
2023-12-08T20:17:35.474Z,981.6
2023-12-08T20:19:36.265Z,981.6
2023-12-08T20:23:38.679Z,981.8
2023-12-08T20:25:40.080Z,981.7
2023-12-08T20:29:42.299Z,981.8
2023-12-08T20:33:45.601Z,981.8
2023-12-08T20:35:47.011Z,981.9
2023-12-08T20:39:50.121Z,981.9
2023-12-08T20:43:52.712Z,982
2023-12-08T20:45:53.990Z,981.9
2023-12-08T20:49:56.910Z,982
2023-12-08T20:51:57.860Z,981.9
2023-12-08T20:56:02.745Z,982
2023-12-08T21:00:03.999Z,982
2023-12-08T21:02:05.174Z,982
2023-12-08T21:06:08.015Z,982
2023-12-08T21:08:09.366Z,981.9
2023-12-08T21:12:12.765Z,982.1
2023-12-08T21:16:15.991Z,982.1
2023-12-08T21:18:17.904Z,982.2
2023-12-08T21:22:21.402Z,982.2
2023-12-08T21:26:24.323Z,982.2
2023-12-08T21:28:26.093Z,982.2
2023-12-08T21:32:29.601Z,982.2
2023-12-08T21:34:30.832Z,982.2
2023-12-08T21:38:34.484Z,982.2
2023-12-08T21:42:36.949Z,982.2
2023-12-08T21:44:37.984Z,982.3
2023-12-08T21:48:41.193Z,982.3
2023-12-08T21:50:42.476Z,982.3
2023-12-08T21:54:45.134Z,982.4
2023-12-08T21:58:47.536Z,982.3
2023-12-08T22:00:48.883Z,982.4
2023-12-08T22:02:59.557Z,982.3
2023-12-08T22:04:52.192Z,982.3
2023-12-08T22:08:54.499Z,982.4
2023-12-08T22:10:56.563Z,982.3
2023-12-08T22:14:59.271Z,982.5
2023-12-08T22:17:00.803Z,982.5
2023-12-08T22:21:03.678Z,982.6
2023-12-08T22:25:06.920Z,982.6
2023-12-08T22:27:08.407Z,982.7
2023-12-08T22:31:10.638Z,982.6
2023-12-08T22:33:12.490Z,982.7
2023-12-08T22:37:15.201Z,982.8
2023-12-08T22:41:17.715Z,982.8
2023-12-08T22:43:19.153Z,982.8
2023-12-08T22:46:04.661Z,982.8
2023-12-08T22:48:06.592Z,982.8
2023-12-08T22:52:08.991Z,982.7
2023-12-08T22:54:10.254Z,982.8
2023-12-08T22:56:11.867Z,982.8
2023-12-08T22:58:13.841Z,982.8
2023-12-08T23:02:16.406Z,982.9
2023-12-08T23:04:18.061Z,982.8
2023-12-08T23:06:19.816Z,982.8
2023-12-08T23:08:21.563Z,982.7
2023-12-08T23:10:23.362Z,982.8
2023-12-08T23:14:25.985Z,982.8
2023-12-08T23:16:27.734Z,982.8
2023-12-08T23:18:29.007Z,982.9
2023-12-08T23:20:29.822Z,982.9
2023-12-08T23:24:33.027Z,982.9
2023-12-08T23:26:34.207Z,983
2023-12-08T23:30:36.407Z,982.9
2023-12-08T23:34:39.457Z,982.9
2023-12-08T23:36:40.774Z,983
2023-12-08T23:40:43.843Z,982.8
2023-12-08T23:44:46.620Z,982.8
2023-12-08T23:46:47.797Z,982.8
2023-12-08T23:50:50.740Z,982.9
2023-12-08T23:52:52.266Z,982.8
2023-12-08T23:56:55.787Z,982.9
